Time;durP1;ratioP1;P1;durP2;ratioP2;P2;SDS_P1;SDS_P2;PMS_P1;PMS_P2;Temp;Humidity;BMP_temperature;BMP_pressure;BME280_temperature;BME280_humidity;BME280_pressure;Samples;Min_cycle;Max_cycle;Signal;HPM_P1;HPM_P2
2022/07/10 00:00:21;;;;;;;4.80;4.50;;;;;;;-141.48;100.00;69781.59;4971728;29;20027;-66
2022/07/10 00:02:52;;;;;;;4.18;3.92;;;;;;;-141.48;100.00;69781.59;4971550;29;20054;-64
2022/07/10 00:05:24;;;;;;;7.60;5.47;;;;;;;-141.48;100.00;69781.59;4971502;29;20031;-64
2022/07/10 00:07:54;;;;;;;4.55;4.10;;;;;;;-141.48;100.00;69781.59;4971561;29;20034;-64
2022/07/10 00:10:25;;;;;;;5.28;4.78;;;;;;;-141.48;100.00;69781.59;4971528;29;20488;-64
2022/07/10 00:12:56;;;;;;;4.88;4.50;;;;;;;-141.48;100.00;69781.59;4971602;29;20027;-64
2022/07/10 00:15:27;;;;;;;3.85;3.75;;;;;;;-141.48;100.00;69781.59;4970964;29;20030;-64
2022/07/10 00:17:57;;;;;;;4.85;4.43;;;;;;;-141.48;100.00;69781.59;4971726;29;20496;-64
2022/07/10 00:20:28;;;;;;;4.28;4.05;;;;;;;-141.48;100.00;69781.59;4971782;29;20035;-63
2022/07/10 00:22:58;;;;;;;4.88;4.60;;;;;;;-141.48;100.00;69781.59;4971336;29;20038;-63
2022/07/10 00:25:30;;;;;;;4.25;4.00;;;;;;;-141.48;100.00;69781.59;4971374;29;20023;-65
2022/07/10 00:28:00;;;;;;;3.70;3.50;;;;;;;-141.48;100.00;69781.59;4971276;29;20029;-63
2022/07/10 00:30:31;;;;;;;4.63;4.43;;;;;;;-141.48;100.00;69781.59;4971280;29;20035;-64
2022/07/10 00:33:01;;;;;;;4.70;4.38;;;;;;;-141.48;100.00;69781.59;4971315;29;20042;-64
2022/07/10 00:35:32;;;;;;;3.92;3.78;;;;;;;-141.48;100.00;69781.59;4971056;29;20035;-63
2022/07/10 00:38:02;;;;;;;8.65;4.85;;;;;;;-141.48;100.00;69781.59;4971395;29;20030;-64
2022/07/10 00:40:33;;;;;;;5.18;4.85;;;;;;;-141.48;100.00;69781.59;4971331;29;20404;-63
2022/07/10 00:43:03;;;;;;;5.55;5.00;;;;;;;-141.48;100.00;69781.59;4971065;29;20038;-64
2022/07/10 00:45:33;;;;;;;6.93;5.80;;;;;;;-141.48;100.00;69781.59;4970619;29;20475;-68
2022/07/10 00:48:04;;;;;;;5.00;4.40;;;;;;;-141.48;100.00;69781.59;4970200;29;20500;-65
2022/07/10 00:50:35;;;;;;;7.80;5.55;;;;;;;-141.48;100.00;69781.59;4954753;29;20031;-63
2022/07/10 00:53:05;;;;;;;3.58;3.38;;;;;;;-141.48;100.00;69781.59;4971268;29;20072;-63
2022/07/10 00:55:37;;;;;;;6.10;5.60;;;;;;;-141.48;100.00;69781.59;4954399;29;20072;-63
2022/07/10 00:58:10;;;;;;;8.77;5.50;;;;;;;-141.48;100.00;69781.59;4970348;29;20027;-63
2022/07/10 01:00:42;;;;;;;5.63;5.13;;;;;;;-141.48;100.00;69781.59;4970789;29;20084;-64
2022/07/10 01:03:12;;;;;;;10.60;5.70;;;;;;;-141.48;100.00;69781.59;4954497;29;20507;-65
2022/07/10 01:05:42;;;;;;;5.85;5.20;;;;;;;-141.48;100.00;69781.59;4954191;29;20038;-67
2022/07/10 01:08:13;;;;;;;4.40;4.10;;;;;;;-141.48;100.00;69781.59;4970465;29;20183;-66
2022/07/10 01:10:44;;;;;;;6.35;4.80;;;;;;;-141.48;100.00;69781.59;4970387;29;20038;-63
2022/07/10 01:13:14;;;;;;;5.22;4.90;;;;;;;-141.48;100.00;69781.59;4970339;29;20023;-63
2022/07/10 01:15:46;;;;;;;8.43;4.50;;;;;;;-141.48;100.00;69781.59;4970150;29;20051;-63
2022/07/10 01:18:17;;;;;;;5.72;5.43;;;;;;;-141.48;100.00;69781.59;4970449;29;20031;-63
2022/07/10 01:20:55;;;;;;;4.85;4.60;;;;;;;-141.48;100.00;69781.59;4970327;29;20484;-65
2022/07/10 01:23:26;;;;;;;5.30;5.03;;;;;;;-141.48;100.00;69781.59;4953592;29;20042;-68
2022/07/10 01:25:56;;;;;;;5.18;4.90;;;;;;;-141.48;100.00;69781.59;4970166;29;20030;-63
2022/07/10 01:28:26;;;;;;;6.28;4.72;;;;;;;-141.48;100.00;69781.59;4970414;29;20073;-63
2022/07/10 01:30:57;;;;;;;11.88;6.43;;;;;;;-141.48;100.00;69781.59;4970176;29;20169;-63
2022/07/10 01:33:28;;;;;;;5.18;4.78;;;;;;;-141.48;100.00;69781.59;4969827;29;20074;-64
2022/07/10 01:35:59;;;;;;;8.95;5.82;;;;;;;-141.48;100.00;69781.59;4970149;29;20031;-64
2022/07/10 01:38:29;;;;;;;5.82;5.53;;;;;;;-141.48;100.00;69781.59;4970458;29;20038;-64
2022/07/10 01:41:00;;;;;;;9.30;6.43;;;;;;;-141.48;100.00;69781.59;4970155;29;20377;-63
2022/07/10 01:43:30;;;;;;;6.78;5.68;;;;;;;-141.48;100.00;69781.59;4970019;29;20042;-63
2022/07/10 01:46:01;;;;;;;4.05;3.85;;;;;;;-141.48;100.00;69781.59;4953490;29;20575;-63
2022/07/10 01:48:31;;;;;;;6.10;5.57;;;;;;;-141.48;100.00;69781.59;4970140;29;20039;-63
2022/07/10 01:51:02;;;;;;;8.15;5.22;;;;;;;-141.48;100.00;69781.59;4969891;29;20033;-64
2022/07/10 01:53:32;;;;;;;6.25;5.72;;;;;;;-141.48;100.00;69781.59;4953460;29;20027;-64
2022/07/10 01:56:06;;;;;;;4.90;4.63;;;;;;;-141.48;100.00;69781.59;4970250;29;20137;-63
2022/07/10 01:58:36;;;;;;;6.82;6.18;;;;;;;-141.48;100.00;69781.59;4969475;29;20471;-63
2022/07/10 02:01:08;;;;;;;5.60;5.22;;;;;;;-141.48;100.00;69781.59;4969965;29;20106;-63
2022/07/10 02:06:28;;;;;;;9.65;6.75;;;;;;;-141.48;100.00;69781.59;4970214;29;20389;-61
2022/07/10 02:08:58;;;;;;;4.95;4.70;;;;;;;-141.48;100.00;69781.59;4969912;29;20023;-65
2022/07/10 02:11:29;;;;;;;6.78;6.38;;;;;;;-141.48;100.00;69781.59;4969883;29;20022;-64
2022/07/10 02:13:59;;;;;;;5.35;5.05;;;;;;;-141.48;100.00;69781.59;4969546;29;20473;-64
2022/07/10 02:16:29;;;;;;;5.68;5.28;;;;;;;-141.48;100.00;69781.59;4969609;29;20031;-62
2022/07/10 02:19:00;;;;;;;5.25;4.90;;;;;;;-141.48;100.00;69781.59;4969569;29;20027;-62
2022/07/10 02:21:30;;;;;;;4.35;4.05;;;;;;;-141.48;100.00;69781.59;4969452;29;20050;-63
2022/07/10 02:24:01;;;;;;;11.77;5.13;;;;;;;-141.48;100.00;69781.59;4969936;29;20173;-63
2022/07/10 02:26:31;;;;;;;5.65;4.68;;;;;;;-141.48;100.00;69781.59;4970482;29;20070;-66
2022/07/10 02:29:02;;;;;;;5.78;4.95;;;;;;;-141.48;100.00;69781.59;4954556;29;20033;-64
2022/07/10 02:31:34;;;;;;;6.70;6.13;;;;;;;-141.48;100.00;69781.59;4953918;29;20030;-63
2022/07/10 02:34:05;;;;;;;5.85;5.47;;;;;;;-141.48;100.00;69781.59;4952973;29;20038;-64
2022/07/10 02:36:38;;;;;;;6.10;5.75;;;;;;;-141.48;100.00;69781.59;4953427;29;20400;-63
2022/07/10 02:39:09;;;;;;;7.70;5.78;;;;;;;-141.48;100.00;69781.59;4969430;29;20523;-64
2022/07/10 02:41:40;;;;;;;8.05;5.97;;;;;;;-141.48;100.00;69781.59;4969622;29;20039;-63
2022/07/10 02:44:11;;;;;;;4.93;4.70;;;;;;;-141.48;100.00;69781.59;4969068;29;20581;-64
2022/07/10 02:46:42;;;;;;;6.07;5.63;;;;;;;-141.48;100.00;69781.59;4969412;29;20062;-62
2022/07/10 02:49:13;;;;;;;6.50;5.90;;;;;;;-141.48;100.00;69781.59;4969636;29;20429;-64
2022/07/10 02:51:43;;;;;;;6.05;5.70;;;;;;;-141.48;100.00;69781.59;4969611;29;20114;-63
2022/07/10 02:54:13;;;;;;;6.35;5.95;;;;;;;-141.48;100.00;69781.59;4969073;29;20058;-63
2022/07/10 02:56:44;;;;;;;6.47;6.07;;;;;;;-141.48;100.00;69781.59;4969306;29;20476;-61
2022/07/10 02:59:14;;;;;;;8.85;6.32;;;;;;;-141.48;100.00;69781.59;4953051;29;20050;-62
2022/07/10 03:01:44;;;;;;;6.93;6.38;;;;;;;-141.48;100.00;69781.59;4969439;29;20485;-61
2022/07/10 03:04:15;;;;;;;10.95;6.60;;;;;;;-141.48;100.00;69781.59;4969148;29;20098;-61
2022/07/10 03:06:45;;;;;;;7.28;6.72;;;;;;;-141.48;100.00;69781.59;4969235;29;20378;-65
2022/07/10 03:09:16;;;;;;;13.82;7.50;;;;;;;-141.48;100.00;69781.59;4969087;29;20045;-63
2022/07/10 03:11:46;;;;;;;8.57;6.05;;;;;;;-141.48;100.00;69781.59;4971379;29;20049;-61
2022/07/10 03:14:17;;;;;;;7.28;6.78;;;;;;;-141.48;100.00;69781.59;4972280;29;20035;-63
2022/07/10 03:16:47;;;;;;;6.75;6.25;;;;;;;-141.48;100.00;69781.59;4956287;29;20058;-63
2022/07/10 03:19:18;;;;;;;6.57;6.22;;;;;;;-141.48;100.00;69781.59;4972488;29;20450;-61
2022/07/10 03:21:48;;;;;;;8.13;7.50;;;;;;;-141.48;100.00;69781.59;4956530;29;20129;-64
2022/07/10 03:24:19;;;;;;;7.40;6.90;;;;;;;-141.48;100.00;69781.59;4972035;29;20033;-64
2022/07/10 03:26:49;;;;;;;7.75;7.32;;;;;;;-141.48;100.00;69781.59;4972291;29;20022;-62
2022/07/10 03:29:19;;;;;;;9.50;8.55;;;;;;;-141.48;100.00;69781.59;4972373;29;20458;-63
2022/07/10 03:31:50;;;;;;;6.30;5.80;;;;;;;-141.48;100.00;69781.59;4972455;29;20111;-61
2022/07/10 03:34:20;;;;;;;8.00;7.43;;;;;;;-141.48;100.00;69781.59;4972124;29;20083;-63
2022/07/10 03:36:51;;;;;;;14.50;7.88;;;;;;;-141.48;100.00;69781.59;4956000;29;20027;-63
2022/07/10 03:39:22;;;;;;;9.00;8.18;;;;;;;-141.48;100.00;69781.59;4972238;29;20037;-64
2022/07/10 03:41:52;;;;;;;10.50;8.40;;;;;;;-141.48;100.00;69781.59;4972148;29;20233;-64
2022/07/10 03:44:23;;;;;;;7.30;6.70;;;;;;;-141.48;100.00;69781.59;4972060;29;20296;-63
2022/07/10 03:46:53;;;;;;;6.93;6.25;;;;;;;-141.48;100.00;69781.59;4972543;29;20110;-63
2022/07/10 03:49:24;;;;;;;8.18;7.45;;;;;;;-141.48;100.00;69781.59;4972149;29;20522;-61
2022/07/10 03:51:54;;;;;;;7.07;6.00;;;;;;;-141.48;100.00;69781.59;4972222;29;20412;-64
2022/07/10 03:54:24;;;;;;;6.88;6.40;;;;;;;-141.48;100.00;69781.59;4971557;29;20554;-64
2022/07/10 03:59:45;;;;;;;7.88;7.40;;;;;;;-141.48;100.00;69781.59;4972027;29;20073;-64
2022/07/10 04:02:15;;;;;;;6.38;5.70;;;;;;;-141.48;100.00;69781.59;4971778;29;20050;-63
2022/07/10 04:04:45;;;;;;;7.57;6.75;;;;;;;-141.48;100.00;69781.59;4955091;29;20030;-62
2022/07/10 04:07:16;;;;;;;6.35;6.05;;;;;;;-141.48;100.00;69781.59;4971672;29;20450;-63
2022/07/10 04:09:46;;;;;;;9.20;6.68;;;;;;;-141.48;100.00;69781.59;4971866;29;20027;-61
2022/07/10 04:12:17;;;;;;;14.13;7.95;;;;;;;-141.48;100.00;69781.59;4971698;29;20472;-63
2022/07/10 04:14:51;;;;;;;7.75;7.07;;;;;;;-141.48;100.00;69781.59;4955287;29;20026;-66
2022/07/10 04:17:21;;;;;;;7.22;6.55;;;;;;;-141.48;100.00;69781.59;4954964;29;20030;-66
2022/07/10 04:19:52;;;;;;;7.10;6.47;;;;;;;-141.48;100.00;69781.59;4971530;29;20045;-64
2022/07/10 04:22:22;;;;;;;5.65;5.35;;;;;;;-141.48;100.00;69781.59;4971314;29;20082;-63
2022/07/10 04:24:54;;;;;;;5.78;5.22;;;;;;;-141.48;100.00;69781.59;4954903;29;20385;-61
2022/07/10 04:27:24;;;;;;;4.88;4.57;;;;;;;-141.48;100.00;69781.59;4971331;29;20171;-64
2022/07/10 04:29:55;;;;;;;12.23;6.35;;;;;;;-141.48;100.00;69781.59;4971421;29;20031;-64
2022/07/10 04:32:27;;;;;;;5.50;5.15;;;;;;;-141.48;100.00;69781.59;4971281;29;20041;-64
2022/07/10 04:34:58;;;;;;;5.28;4.78;;;;;;;-141.48;100.00;69781.59;4967486;24;20070;-67
2022/07/10 04:37:29;;;;;;;6.90;6.40;;;;;;;-141.48;100.00;69781.59;4954785;29;20134;-65
2022/07/10 04:39:59;;;;;;;9.63;5.65;;;;;;;-141.48;100.00;69781.59;4971562;29;20113;-67
2022/07/10 04:42:30;;;;;;;9.13;6.53;;;;;;;-141.48;100.00;69781.59;4971445;29;20058;-65
2022/07/10 04:45:01;;;;;;;7.50;5.45;;;;;;;-141.48;100.00;69781.59;4970769;29;20034;-68
2022/07/10 04:47:32;;;;;;;5.70;5.20;;;;;;;-141.48;100.00;69781.59;4971388;29;20068;-66
2022/07/10 04:50:03;;;;;;;8.40;5.93;;;;;;;-141.48;100.00;69781.59;4971134;29;20026;-66
2022/07/10 04:52:33;;;;;;;5.93;4.75;;;;;;;-141.48;100.00;69781.59;4955049;29;20503;-66
2022/07/10 04:55:04;;;;;;;5.90;5.60;;;;;;;-141.48;100.00;69781.59;4971327;29;20476;-65
2022/07/10 04:57:35;;;;;;;4.88;4.55;;;;;;;-141.48;100.00;69781.59;4971374;29;20031;-65
2022/07/10 05:00:06;;;;;;;6.43;5.93;;;;;;;-141.48;100.00;69781.59;4954827;29;20026;-65
2022/07/10 05:02:36;;;;;;;5.15;4.85;;;;;;;-141.48;100.00;69781.59;4970991;29;20117;-65
2022/07/10 05:05:07;;;;;;;5.10;4.60;;;;;;;-141.48;100.00;69781.59;4954334;29;20027;-65
2022/07/10 05:07:37;;;;;;;5.18;4.63;;;;;;;-141.48;100.00;69781.59;4954641;29;20492;-65
2022/07/10 05:10:09;;;;;;;4.57;4.28;;;;;;;-141.48;100.00;69781.59;4970649;29;20030;-65
2022/07/10 05:12:39;;;;;;;5.07;4.35;;;;;;;-141.48;100.00;69781.59;4970924;29;20039;-65
2022/07/10 05:15:10;;;;;;;6.32;5.68;;;;;;;-141.48;100.00;69781.59;4970398;29;20023;-65
2022/07/10 05:17:40;;;;;;;5.65;4.68;;;;;;;-141.48;100.00;69781.59;4970756;29;20114;-65
2022/07/10 05:20:11;;;;;;;5.22;4.97;;;;;;;-141.48;100.00;69781.59;4970556;29;20035;-65
2022/07/10 05:22:41;;;;;;;4.85;4.45;;;;;;;-141.48;100.00;69781.59;4970448;29;20061;-63
2022/07/10 05:25:11;;;;;;;3.80;3.60;;;;;;;-141.48;100.00;69781.59;4969968;29;20038;-64
2022/07/10 05:27:42;;;;;;;5.57;5.20;;;;;;;-141.48;100.00;69781.59;4970487;29;20053;-65
2022/07/10 05:30:12;;;;;;;4.22;3.83;;;;;;;-141.48;100.00;69781.59;4954340;29;20079;-64
2022/07/10 05:32:44;;;;;;;5.32;4.40;;;;;;;-141.48;100.00;69781.59;4970090;29;20393;-64
2022/07/10 05:35:15;;;;;;;4.75;4.38;;;;;;;-141.48;100.00;69781.59;4969379;29;20520;-64
2022/07/10 05:37:45;;;;;;;5.03;4.70;;;;;;;-141.48;100.00;69781.59;4970113;29;20034;-64
2022/07/10 05:40:16;;;;;;;5.57;5.15;;;;;;;-141.48;100.00;69781.59;4954010;29;20030;-64
2022/07/10 05:42:46;;;;;;;5.53;5.15;;;;;;;-141.48;100.00;69781.59;4970307;29;20394;-63
2022/07/10 05:45:17;;;;;;;4.65;4.40;;;;;;;-141.48;100.00;69781.59;4969931;29;20105;-64
2022/07/10 05:47:48;;;;;;;4.97;4.68;;;;;;;-141.48;100.00;69781.59;4954381;29;20071;-64
2022/07/10 05:50:18;;;;;;;6.68;5.30;;;;;;;-141.48;100.00;69781.59;4970382;29;20027;-64
2022/07/10 05:52:49;;;;;;;4.22;3.90;;;;;;;-141.48;100.00;69781.59;4970204;29;20507;-63
2022/07/10 05:55:19;;;;;;;4.70;4.50;;;;;;;-141.48;100.00;69781.59;4969702;29;20523;-64
2022/07/10 05:57:50;;;;;;;4.97;4.65;;;;;;;-141.48;100.00;69781.59;4970081;29;20477;-64
2022/07/10 06:00:21;;;;;;;5.32;4.95;;;;;;;-141.48;100.00;69781.59;4969808;29;20023;-64
2022/07/10 06:02:51;;;;;;;3.83;3.63;;;;;;;-141.48;100.00;69781.59;4969974;29;20035;-63
2022/07/10 06:05:22;;;;;;;4.80;4.47;;;;;;;-141.48;100.00;69781.59;4969393;29;20117;-63
2022/07/10 06:07:52;;;;;;;5.28;4.90;;;;;;;-141.48;100.00;69781.59;4970100;29;20064;-64
2022/07/10 06:10:22;;;;;;;4.60;4.25;;;;;;;-141.48;100.00;69781.59;4970011;29;20039;-64
2022/07/10 06:12:53;;;;;;;3.75;3.40;;;;;;;-141.48;100.00;69781.59;4969992;29;20100;-63
2022/07/10 06:15:23;;;;;;;4.82;4.53;;;;;;;-141.48;100.00;69781.59;4969724;29;20441;-64
2022/07/10 06:17:57;;;;;;;3.65;3.38;;;;;;;-141.48;100.00;69781.59;4969917;29;20110;-64
2022/07/10 06:20:28;;;;;;;7.43;4.10;;;;;;;-141.48;100.00;69781.59;4953728;29;20035;-62
2022/07/10 06:22:58;;;;;;;4.63;3.58;;;;;;;-141.48;100.00;69781.59;4953675;29;20027;-63
2022/07/10 06:25:29;;;;;;;4.90;3.85;;;;;;;-141.48;100.00;69781.59;4969502;29;20056;-63
2022/07/10 06:27:59;;;;;;;3.67;3.38;;;;;;;-141.48;100.00;69781.59;4953846;29;20053;-64
2022/07/10 06:30:30;;;;;;;5.53;4.53;;;;;;;-141.48;100.00;69781.59;4953557;29;20031;-64
2022/07/10 06:33:00;;;;;;;4.97;4.47;;;;;;;-141.48;100.00;69781.59;4969838;29;20043;-64
2022/07/10 06:35:31;;;;;;;5.03;4.72;;;;;;;-141.48;100.00;69781.59;4969054;29;20426;-64
2022/07/10 06:38:01;;;;;;;4.00;3.78;;;;;;;-141.48;100.00;69781.59;4969956;29;20081;-61
2022/07/10 06:40:37;;;;;;;3.38;3.28;;;;;;;-141.48;100.00;69781.59;4970100;29;20035;-64
2022/07/10 06:43:07;;;;;;;6.07;4.22;;;;;;;-141.48;100.00;69781.59;4969733;29;20073;-65
2022/07/10 06:45:39;;;;;;;4.15;3.83;;;;;;;-141.48;100.00;69781.59;4969850;29;20054;-64
2022/07/10 06:48:10;;;;;;;3.70;3.60;;;;;;;-141.48;100.00;69781.59;4956975;29;20034;-62
2022/07/10 06:50:41;;;;;;;5.07;4.07;;;;;;;-141.48;100.00;69781.59;4973266;29;20026;-64
2022/07/10 06:53:11;;;;;;;3.13;3.00;;;;;;;-141.48;100.00;69781.59;4956922;29;20496;-64
2022/07/10 06:55:42;;;;;;;4.32;4.03;;;;;;;-141.48;100.00;69781.59;4972736;29;20027;-64
2022/07/10 06:58:13;;;;;;;10.55;3.97;;;;;;;-141.48;100.00;69781.59;4973121;29;20076;-63
2022/07/10 07:00:43;;;;;;;3.35;3.10;;;;;;;-141.48;100.00;69781.59;4972747;29;20039;-64
2022/07/10 07:03:13;;;;;;;4.80;3.20;;;;;;;-141.48;100.00;69781.59;4972644;29;20031;-64
2022/07/10 07:05:44;;;;;;;4.13;3.83;;;;;;;-141.48;100.00;69781.59;4972546;29;20038;-64
2022/07/10 07:08:16;;;;;;;4.20;4.00;;;;;;;-141.48;100.00;69781.59;4972974;29;20031;-65
2022/07/10 07:10:46;;;;;;;4.22;3.72;;;;;;;-141.48;100.00;69781.59;4956415;29;20034;-63
2022/07/10 07:13:17;;;;;;;6.00;4.40;;;;;;;-141.48;100.00;69781.59;4972630;29;20034;-65
2022/07/10 07:15:58;;;;;;;5.38;3.25;;;;;;;-141.48;100.00;69781.59;4972345;29;20512;-63
2022/07/10 07:18:36;;;;;;;3.35;2.90;;;;;;;-141.48;100.00;69781.59;4972752;29;20035;-65
2022/07/10 07:23:55;;;;;;;4.05;3.60;;;;;;;-141.48;100.00;69781.59;4972496;29;20473;-64
2022/07/10 07:26:26;;;;;;;2.88;2.75;;;;;;;-141.48;100.00;69781.59;4972444;29;20027;-65
2022/07/10 07:28:56;;;;;;;6.15;3.42;;;;;;;-141.48;100.00;69781.59;4956330;29;20027;-65
2022/07/10 07:31:27;;;;;;;6.68;3.78;;;;;;;-141.48;100.00;69781.59;4972293;29;20113;-65
2022/07/10 07:33:57;;;;;;;4.38;4.00;;;;;;;-141.48;100.00;69781.59;4971813;29;20114;-65
2022/07/10 07:36:28;;;;;;;4.30;3.88;;;;;;;-141.48;100.00;69781.59;4972535;29;20171;-65
2022/07/10 07:38:58;;;;;;;3.22;3.13;;;;;;;-141.48;100.00;69781.59;4972445;29;20035;-63
2022/07/10 07:41:29;;;;;;;2.85;2.38;;;;;;;-141.48;100.00;69781.59;4972248;29;20035;-65
2022/07/10 07:43:59;;;;;;;3.75;3.33;;;;;;;-141.48;100.00;69781.59;4971726;29;20102;-65
2022/07/10 07:46:30;;;;;;;3.90;2.83;;;;;;;-141.48;100.00;69781.59;4971832;29;20113;-65
2022/07/10 07:49:00;;;;;;;4.88;3.90;;;;;;;-141.48;100.00;69781.59;4972003;29;20027;-65
2022/07/10 07:51:30;;;;;;;3.25;3.13;;;;;;;-141.48;100.00;69781.59;4955988;29;20083;-66
2022/07/10 07:54:01;;;;;;;3.10;3.00;;;;;;;-141.48;100.00;69781.59;4971502;29;20035;-66
2022/07/10 07:56:31;;;;;;;4.03;3.53;;;;;;;-141.48;100.00;69781.59;4971605;29;20381;-65
2022/07/10 07:59:02;;;;;;;2.97;2.58;;;;;;;-141.48;100.00;69781.59;4971812;29;20054;-64
2022/07/10 08:01:32;;;;;;;4.63;4.22;;;;;;;-141.48;100.00;69781.59;4972124;29;20058;-67
2022/07/10 08:04:03;;;;;;;2.95;2.83;;;;;;;-141.48;100.00;69781.59;4973667;29;20031;-67
2022/07/10 08:06:33;;;;;;;10.93;3.67;;;;;;;-141.48;100.00;69781.59;4972330;29;20030;-67
2022/07/10 08:09:04;;;;;;;5.93;3.40;;;;;;;-141.48;100.00;69781.59;4977000;29;20102;-63
2022/07/10 08:11:35;;;;;;;3.00;2.90;;;;;;;-141.48;100.00;69781.59;4976828;29;20030;-64
2022/07/10 08:14:06;;;;;;;3.83;3.47;;;;;;;-141.48;100.00;69781.59;4975482;29;20080;-65
2022/07/10 08:16:36;;;;;;;3.08;2.85;;;;;;;-141.48;100.00;69781.59;4959466;29;20062;-66
2022/07/10 08:19:07;;;;;;;2.55;2.45;;;;;;;-141.48;100.00;69781.59;4972859;29;20123;-63
2022/07/10 08:21:37;;;;;;;2.83;2.72;;;;;;;-141.48;100.00;69781.59;4955762;29;20484;-65
2022/07/10 08:24:08;;;;;;;2.85;2.75;;;;;;;-141.48;100.00;69781.59;4971504;29;20548;-66
2022/07/10 08:26:38;;;;;;;8.23;4.13;;;;;;;-141.48;100.00;69781.59;4971331;29;20113;-65
2022/07/10 08:29:09;;;;;;;3.10;2.90;;;;;;;-141.48;100.00;69781.59;4971542;29;20042;-65
2022/07/10 08:31:40;;;;;;;2.90;2.80;;;;;;;-141.48;100.00;69781.59;4971572;29;20033;-64
2022/07/10 08:34:10;;;;;;;5.05;3.70;;;;;;;-141.48;100.00;69781.59;4970821;29;20026;-63
2022/07/10 08:36:40;;;;;;;4.10;3.70;;;;;;;-141.48;100.00;69781.59;4971282;29;20026;-66
2022/07/10 08:39:12;;;;;;;8.15;2.67;;;;;;;-141.48;100.00;69781.59;4971247;29;20035;-66
2022/07/10 08:41:45;;;;;;;3.05;2.88;;;;;;;-141.48;100.00;69781.59;4955459;29;20039;-63
2022/07/10 08:44:17;;;;;;;5.18;2.85;;;;;;;-141.48;100.00;69781.59;4954662;29;20065;-65
2022/07/10 08:46:47;;;;;;;5.95;3.70;;;;;;;-141.48;100.00;69781.59;4970694;29;20041;-66
2022/07/10 08:49:24;;;;;;;2.65;2.50;;;;;;;-141.48;100.00;69781.59;4971118;29;20023;-67
2022/07/10 08:52:02;;;;;;;4.00;3.70;;;;;;;-141.48;100.00;69781.59;4971069;29;20099;-65
2022/07/10 08:54:33;;;;;;;3.53;3.33;;;;;;;-141.48;100.00;69781.59;4970343;29;20353;-63
2022/07/10 08:57:03;;;;;;;3.13;2.95;;;;;;;-141.48;100.00;69781.59;4970783;29;20026;-65
2022/07/10 08:59:34;;;;;;;5.53;2.63;;;;;;;-141.48;100.00;69781.59;4970715;29;20511;-64
2022/07/10 09:02:05;;;;;;;6.25;2.90;;;;;;;-141.48;100.00;69781.59;4970722;29;20030;-64
2022/07/10 09:04:35;;;;;;;6.03;2.95;;;;;;;-141.48;100.00;69781.59;4970373;29;20027;-63
2022/07/10 09:07:05;;;;;;;7.35;3.08;;;;;;;-141.48;100.00;69781.59;4954586;29;20037;-70
2022/07/10 09:09:56;;;;;;;3.53;3.33;;;;;;;-141.48;100.00;69781.59;4970029;29;20373;-67
2022/07/10 09:12:26;;;;;;;3.92;3.72;;;;;;;-141.48;100.00;69781.59;4954565;29;20038;-64
2022/07/10 09:15:15;;;;;;;4.18;3.88;;;;;;;-141.48;100.00;69781.59;4970411;29;20027;-64
2022/07/10 09:18:00;;;;;;;3.05;2.95;;;;;;;-141.48;100.00;69781.59;4954412;29;20093;-64
2022/07/10 09:20:32;;;;;;;7.20;3.80;;;;;;;-141.48;100.00;69781.59;4970335;29;20031;-63
2022/07/10 09:23:21;;;;;;;3.47;3.20;;;;;;;-141.48;100.00;69781.59;4970418;29;20062;-67
2022/07/10 09:25:53;;;;;;;3.63;3.30;;;;;;;-141.48;100.00;69781.59;4970589;29;20034;-64
2022/07/10 09:28:23;;;;;;;4.10;2.90;;;;;;;-141.48;100.00;69781.59;4954058;29;20288;-64
2022/07/10 09:30:54;;;;;;;9.10;4.40;;;;;;;-141.48;100.00;69781.59;4970357;29;20507;-63
2022/07/10 09:33:27;;;;;;;4.40;4.03;;;;;;;-141.48;100.00;69781.59;4970017;29;20038;-62
2022/07/10 09:36:04;;;;;;;3.40;3.30;;;;;;;-141.48;100.00;69781.59;4970604;29;20049;-64
2022/07/10 09:38:44;;;;;;;3.20;2.95;;;;;;;-141.48;100.00;69781.59;4970253;29;20061;-63
2022/07/10 09:41:15;;;;;;;3.30;3.00;;;;;;;-141.48;100.00;69781.59;4969819;29;20039;-64
2022/07/10 09:43:46;;;;;;;3.17;3.05;;;;;;;-141.48;100.00;69781.59;4969859;29;20031;-69
2022/07/10 09:46:21;;;;;;;2.85;2.72;;;;;;;-141.48;100.00;69781.59;4970167;29;20506;-63
2022/07/10 09:49:02;;;;;;;5.35;3.47;;;;;;;-141.48;100.00;69781.59;4953674;29;20042;-72
2022/07/10 09:51:45;;;;;;;3.78;3.28;;;;;;;-141.48;100.00;69781.59;4970128;29;20035;-63
2022/07/10 09:54:16;;;;;;;3.83;3.63;;;;;;;-141.48;100.00;69781.59;4970079;29;20063;-63
2022/07/10 09:56:51;;;;;;;4.30;4.00;;;;;;;-141.48;100.00;69781.59;4970586;29;20485;-67
2022/07/10 09:59:21;;;;;;;5.00;4.70;;;;;;;-141.48;100.00;69781.59;4969928;29;20096;-64
2022/07/10 10:01:52;;;;;;;4.47;4.15;;;;;;;-141.48;100.00;69781.59;4970053;29;20464;-62
2022/07/10 10:04:24;;;;;;;4.30;3.90;;;;;;;-141.48;100.00;69781.59;4969993;29;20063;-61
2022/07/10 10:07:02;;;;;;;4.88;4.45;;;;;;;-141.48;100.00;69781.59;4969990;29;20030;-63
2022/07/10 10:09:41;;;;;;;3.80;3.55;;;;;;;-141.48;100.00;69781.59;4969802;29;20046;-68
2022/07/10 10:12:31;;;;;;;4.00;3.80;;;;;;;-141.48;100.00;69781.59;4970424;29;20539;-66
2022/07/10 10:15:01;;;;;;;;;;;;;;;-141.48;100.00;69781.59;4970321;29;20038;-72
2022/07/10 10:17:34;;;;;;;11.68;4.70;;;;;;;-141.48;100.00;69781.59;4970061;29;19917;-65
2022/07/10 10:22:56;;;;;;;3.63;3.42;;;;;;;-141.48;100.00;69781.59;4974250;29;20111;-63
2022/07/10 10:25:29;;;;;;;4.55;4.10;;;;;;;-141.48;100.00;69781.59;4973593;29;20504;-61
2022/07/10 10:28:02;;;;;;;4.07;3.80;;;;;;;-141.48;100.00;69781.59;4973911;29;20129;-62
2022/07/10 10:30:38;;;;;;;3.40;3.28;;;;;;;-141.48;100.00;69781.59;4957207;29;20031;-63
2022/07/10 10:33:42;;;;;;;3.42;3.28;;;;;;;-141.48;100.00;69781.59;4987289;24;20099;-62
2022/07/10 10:36:33;;;;;;;5.63;3.17;;;;;;;-141.48;100.00;69781.59;4952303;30;20053;-63
2022/07/10 10:39:13;;;;;;;3.55;3.25;;;;;;;-141.48;100.00;69781.59;4925616;30;20046;-63
2022/07/10 10:41:47;;;;;;;3.58;3.28;;;;;;;-141.48;100.00;69781.59;4934047;30;20414;-62
2022/07/10 10:44:18;;;;;;;3.25;2.97;;;;;;;-141.48;100.00;69781.59;4934751;30;20032;-62
2022/07/10 10:46:54;;;;;;;2.92;2.72;;;;;;;-141.48;100.00;69781.59;4934905;30;20041;-62
2022/07/10 10:49:25;;;;;;;3.42;3.30;;;;;;;-141.48;100.00;69781.59;4934820;30;20032;-62
2022/07/10 10:52:01;;;;;;;3.38;3.17;;;;;;;-141.48;100.00;69781.59;4934775;30;20039;-62
2022/07/10 10:54:57;;;;;;;3.95;3.65;;;;;;;-141.48;100.00;69781.59;4933228;30;20028;-61
2022/07/10 10:57:51;;;;;;;3.38;3.17;;;;;;;-141.48;100.00;69781.59;4934666;30;20039;-62
2022/07/10 11:00:37;;;;;;;4.03;3.72;;;;;;;-141.48;100.00;69781.59;4918551;30;20039;-61
2022/07/10 11:03:22;;;;;;;3.00;2.90;;;;;;;-141.48;100.00;69781.59;4934893;30;20035;-62
2022/07/10 11:05:53;;;;;;;3.50;3.30;;;;;;;-141.48;100.00;69781.59;4934581;30;20039;-63
2022/07/10 11:08:58;;;;;;;3.13;2.97;;;;;;;-141.48;100.00;69781.59;4918348;30;20391;-63
2022/07/10 11:11:31;;;;;;;2.90;2.80;;;;;;;-141.48;100.00;69781.59;4914132;30;20066;-61
2022/07/10 11:14:03;;;;;;;3.92;3.72;;;;;;;-141.48;100.00;69781.59;4934123;30;20031;-62
2022/07/10 11:16:34;;;;;;;5.60;3.45;;;;;;;-141.48;100.00;69781.59;4934507;30;20405;-62
2022/07/10 11:19:04;;;;;;;3.63;3.33;;;;;;;-141.48;100.00;69781.59;4934120;30;20033;-62
2022/07/10 11:21:46;;;;;;;5.32;3.63;;;;;;;-141.48;100.00;69781.59;4934256;30;20032;-63
2022/07/10 11:24:42;;;;;;;6.00;4.03;;;;;;;-141.48;100.00;69781.59;4934059;30;20032;-62
2022/07/10 11:27:20;;;;;;;4.25;3.92;;;;;;;-141.48;100.00;69781.59;4933935;30;20036;-62
2022/07/10 11:29:57;;;;;;;3.03;2.92;;;;;;;-141.48;100.00;69781.59;4933997;30;20032;-62
2022/07/10 11:32:28;;;;;;;3.13;2.92;;;;;;;-141.48;100.00;69781.59;4932725;30;20031;-61
2022/07/10 11:34:59;;;;;;;3.25;3.05;;;;;;;-141.48;100.00;69781.59;4933234;30;20104;-63
2022/07/10 11:37:30;;;;;;;2.90;2.63;;;;;;;-141.48;100.00;69781.59;4916921;30;20123;-63
2022/07/10 11:40:11;;;;;;;4.32;3.47;;;;;;;-141.48;100.00;69781.59;4917131;30;20032;-62
2022/07/10 11:42:59;;;;;;;4.60;3.65;;;;;;;-141.48;100.00;69781.59;4933338;30;20489;-63